createdAt,value
2017-10-12T07:49:18.634Z,17.30
2017-10-12T07:51:45.062Z,16.60
2017-10-12T07:54:11.501Z,15.20
2017-10-12T07:56:37.905Z,14.30
2017-10-12T07:59:04.297Z,13.70
2017-10-12T08:01:30.741Z,13.20
2017-10-12T08:03:57.931Z,12.80
2017-10-12T08:06:24.345Z,12.80
2017-10-12T08:08:51.490Z,12.70
2017-10-12T08:11:18.659Z,12.60
2017-10-12T08:13:45.063Z,12.60
2017-10-12T08:16:12.256Z,12.50
2017-10-12T08:18:38.690Z,12.50
2017-10-12T08:21:05.094Z,12.50
2017-10-12T08:23:32.305Z,12.60
2017-10-12T08:25:58.751Z,12.50
2017-10-12T08:28:25.136Z,12.50
2017-10-12T08:30:51.534Z,12.50
2017-10-12T08:33:18.658Z,12.40
2017-10-12T08:35:45.076Z,12.40
2017-10-12T08:38:11.473Z,12.40
2017-10-12T08:40:37.886Z,12.40
2017-10-12T08:43:04.340Z,12.40
2017-10-12T08:45:30.814Z,12.40
2017-10-12T08:47:57.235Z,12.40
2017-10-12T08:50:23.661Z,12.50
2017-10-12T08:52:50.110Z,12.50
2017-10-12T08:55:16.590Z,12.60
2017-10-12T08:57:42.998Z,12.70
2017-10-12T09:00:09.422Z,12.90
2017-10-12T09:02:35.866Z,13.00
2017-10-12T09:05:02.289Z,13.20
2017-10-12T09:07:28.675Z,13.40
2017-10-12T09:09:55.061Z,13.50
2017-10-12T09:12:21.514Z,13.60
2017-10-12T09:14:48.674Z,13.70
2017-10-12T09:17:15.111Z,13.70
2017-10-12T09:19:41.517Z,13.70
2017-10-12T09:22:08.677Z,13.80
2017-10-12T09:24:35.061Z,13.70
2017-10-12T09:27:01.510Z,13.70
2017-10-12T09:29:28.753Z,13.60
2017-10-12T09:31:56.025Z,13.70
2017-10-12T09:34:22.637Z,13.70
2017-10-12T09:36:49.278Z,13.70
2017-10-12T09:39:15.827Z,13.80
2017-10-12T09:41:42.390Z,13.90
2017-10-12T09:44:08.937Z,13.90
2017-10-12T09:46:35.525Z,14.00
2017-10-12T09:49:01.978Z,14.20
2017-10-12T09:51:28.446Z,14.50
2017-10-12T09:53:55.714Z,15.60
2017-10-12T09:56:22.877Z,18.00
2017-10-12T09:58:50.131Z,19.30
2017-10-12T10:01:17.338Z,19.50
2017-10-12T10:03:43.829Z,19.50
2017-10-12T10:06:10.302Z,20.50
2017-10-12T10:08:37.654Z,20.20
2017-10-12T10:11:04.150Z,20.20
2017-10-12T10:13:30.657Z,20.40
2017-10-12T10:15:57.142Z,21.00
2017-10-12T10:18:23.594Z,20.90
2017-10-12T10:20:50.021Z,20.70
2017-10-12T10:23:16.593Z,19.60
2017-10-12T10:25:43.075Z,18.90
2017-10-12T10:28:09.593Z,18.60
2017-10-12T10:30:36.110Z,18.10
2017-10-12T10:33:02.602Z,17.60
2017-10-12T10:35:29.178Z,17.20
2017-10-12T10:37:56.553Z,17.30
2017-10-12T10:40:23.079Z,17.30
2017-10-12T10:42:49.640Z,17.50
2017-10-12T10:45:16.122Z,17.60
2017-10-12T10:47:43.322Z,17.20
2017-10-12T10:50:09.771Z,17.20
2017-10-12T10:52:36.262Z,17.10
2017-10-12T10:55:03.506Z,16.70
2017-10-12T10:57:30.722Z,16.70
2017-10-12T10:59:57.186Z,16.60
2017-10-12T11:02:23.663Z,16.60
2017-10-12T11:04:50.102Z,16.50
2017-10-12T11:07:16.545Z,16.40
2017-10-12T11:09:43.007Z,16.40
2017-10-12T11:12:10.210Z,16.50
2017-10-12T11:14:36.697Z,16.50
2017-10-12T11:17:03.905Z,16.50
2017-10-12T11:19:30.521Z,16.50
2017-10-12T11:21:57.051Z,16.50
2017-10-12T11:24:23.515Z,16.40
2017-10-12T11:26:50.046Z,16.40
2017-10-12T11:29:16.705Z,16.30
2017-10-12T11:31:43.166Z,16.30
2017-10-12T11:34:09.621Z,16.20
2017-10-12T11:36:36.124Z,16.20
2017-10-12T11:39:02.641Z,16.30
2017-10-12T11:41:29.910Z,16.30
2017-10-12T11:43:56.371Z,16.30
2017-10-12T11:46:22.880Z,16.30
2017-10-12T11:48:49.304Z,16.20
2017-10-12T11:51:15.749Z,16.30
2017-10-12T11:53:42.244Z,16.20
2017-10-12T11:56:08.735Z,16.30
2017-10-12T11:58:35.214Z,16.30
2017-10-12T12:01:01.723Z,16.30
2017-10-12T12:03:28.230Z,16.50
2017-10-12T12:05:55.438Z,16.80
2017-10-12T12:08:21.900Z,16.80
2017-10-12T12:10:48.430Z,16.90
2017-10-12T12:13:14.873Z,16.80
2017-10-12T12:15:42.283Z,16.80
2017-10-12T12:18:08.745Z,16.80
2017-10-12T12:20:35.226Z,16.90
2017-10-12T12:23:01.685Z,16.90
2017-10-12T12:25:28.117Z,17.00
2017-10-12T12:27:54.786Z,17.10
2017-10-12T12:30:21.272Z,17.10
2017-10-12T12:32:47.978Z,17.10
2017-10-12T12:35:15.177Z,17.10
2017-10-12T12:37:41.647Z,17.10
2017-10-12T12:40:08.109Z,17.00
2017-10-12T12:42:34.590Z,17.10
2017-10-12T12:45:01.137Z,17.00
2017-10-12T12:47:27.689Z,17.00
2017-10-12T12:49:54.880Z,17.20
2017-10-12T12:52:21.338Z,17.10
2017-10-12T12:54:47.819Z,17.10
2017-10-12T12:57:14.262Z,17.00
2017-10-12T12:59:40.697Z,17.00
2017-10-12T13:02:07.270Z,17.10
2017-10-12T13:04:33.763Z,17.30
2017-10-12T13:07:00.983Z,17.50
2017-10-12T13:09:27.478Z,17.50
2017-10-12T13:11:53.987Z,17.50
2017-10-12T13:14:21.170Z,17.40
2017-10-12T13:16:47.629Z,17.40
2017-10-12T13:19:14.083Z,17.50
2017-10-12T13:21:41.266Z,17.70
2017-10-12T13:24:07.730Z,17.70
2017-10-12T13:26:34.278Z,17.80
2017-10-12T13:29:00.761Z,17.90
2017-10-12T13:31:27.286Z,17.90
2017-10-12T13:33:53.798Z,17.90
2017-10-12T13:36:20.998Z,17.60
2017-10-12T13:38:47.449Z,17.60
2017-10-12T13:41:14.038Z,17.40
2017-10-12T13:43:40.638Z,17.40
2017-10-12T13:46:07.102Z,17.20
2017-10-12T13:48:34.517Z,17.20
2017-10-12T13:51:01.075Z,17.20
2017-10-12T13:53:28.297Z,17.20
2017-10-12T13:55:54.762Z,17.20
2017-10-12T13:58:21.235Z,17.20
2017-10-12T14:00:47.831Z,17.20
2017-10-12T14:03:14.532Z,17.20
2017-10-12T14:05:41.160Z,17.20
2017-10-12T14:08:07.622Z,17.30
2017-10-12T14:10:34.202Z,17.20
2017-10-12T14:13:00.677Z,17.30
2017-10-12T14:15:27.188Z,17.30
2017-10-12T14:17:53.807Z,17.20
2017-10-12T14:20:20.254Z,17.00
2017-10-12T14:22:46.695Z,17.00
2017-10-12T14:25:13.209Z,17.00
2017-10-12T14:27:39.664Z,16.90
2017-10-12T14:30:06.149Z,16.90
2017-10-12T14:32:32.595Z,17.00
2017-10-12T14:34:59.071Z,16.90
2017-10-12T14:37:25.574Z,16.90
2017-10-12T14:39:52.746Z,16.80
2017-10-12T14:42:19.257Z,16.80
2017-10-12T14:44:46.429Z,16.70
2017-10-12T14:47:12.940Z,16.70
2017-10-12T14:49:40.274Z,16.70
2017-10-12T14:52:06.764Z,16.60
2017-10-12T14:54:33.306Z,16.70
2017-10-12T14:56:59.794Z,16.60
2017-10-12T14:59:26.408Z,16.60
2017-10-12T15:01:53.925Z,16.60
2017-10-12T15:04:21.402Z,16.60
2017-10-12T15:06:47.853Z,16.60
2017-10-12T15:09:14.347Z,16.60
2017-10-12T15:11:40.802Z,16.60
2017-10-12T15:14:07.249Z,16.50
2017-10-12T15:16:33.706Z,16.50
2017-10-12T15:19:00.899Z,16.50
2017-10-12T15:21:27.379Z,16.50
2017-10-12T15:23:53.833Z,16.60
2017-10-12T15:26:20.318Z,16.60
2017-10-12T15:28:47.574Z,16.70
2017-10-12T15:31:14.043Z,16.60
2017-10-12T15:33:40.528Z,16.60
2017-10-12T15:36:06.986Z,16.50
2017-10-12T15:38:33.415Z,16.40
2017-10-12T15:40:59.894Z,16.40
2017-10-12T15:43:27.124Z,16.30
2017-10-12T15:45:53.686Z,16.30
2017-10-12T15:48:20.152Z,16.20
2017-10-12T15:50:46.650Z,16.10
2017-10-12T15:53:13.112Z,16.10
2017-10-12T15:55:39.605Z,16.00
2017-10-12T15:58:06.046Z,16.10
2017-10-12T16:00:33.266Z,16.00
2017-10-12T16:03:00.508Z,15.90
2017-10-12T16:05:27.006Z,15.90
2017-10-12T16:07:53.454Z,15.90
2017-10-12T16:10:19.941Z,16.00
2017-10-12T16:12:46.406Z,15.80
2017-10-12T16:15:12.896Z,15.80
2017-10-12T16:17:40.106Z,15.60
2017-10-12T16:20:06.591Z,15.60
2017-10-12T16:25:01.063Z,15.40
2017-10-12T16:29:53.936Z,15.30
2017-10-12T16:32:20.382Z,15.20
2017-10-12T16:34:46.903Z,15.20
2017-10-12T16:37:13.370Z,15.20
2017-10-12T16:39:39.953Z,15.20
2017-10-12T16:42:06.404Z,15.10
2017-10-12T16:44:32.886Z,15.10
2017-10-12T16:46:59.358Z,15.00
2017-10-12T16:49:26.030Z,15.00
2017-10-12T16:51:52.469Z,14.90
2017-10-12T16:54:19.707Z,14.80
2017-10-12T16:56:46.194Z,14.80
2017-10-12T16:59:12.688Z,14.70
2017-10-12T17:01:39.203Z,14.60
2017-10-12T17:04:05.690Z,14.50
2017-10-12T17:06:32.151Z,14.40
2017-10-12T17:08:58.616Z,14.40
2017-10-12T17:11:25.125Z,14.30
2017-10-12T17:13:51.694Z,14.30
2017-10-12T17:16:18.885Z,14.10
2017-10-12T17:18:45.425Z,14.10
2017-10-12T17:21:12.883Z,14.00
2017-10-12T17:26:05.860Z,14.00
2017-10-12T17:28:33.325Z,14.00
2017-10-12T17:31:00.612Z,13.90
2017-10-12T17:33:27.145Z,13.90
2017-10-12T17:35:54.360Z,13.80
2017-10-12T17:38:20.827Z,13.80
2017-10-12T17:40:47.314Z,13.70
2017-10-12T17:43:13.770Z,13.70
2017-10-12T17:45:40.231Z,13.70
2017-10-12T17:48:06.783Z,13.60
2017-10-12T17:50:33.220Z,13.50
2017-10-12T17:52:59.742Z,13.50
2017-10-12T17:55:26.971Z,13.50
2017-10-12T17:57:53.487Z,13.40
2017-10-12T18:00:19.921Z,13.40
2017-10-12T18:02:46.422Z,13.30
2017-10-12T18:05:12.928Z,13.30
2017-10-12T18:07:39.389Z,13.20
2017-10-12T18:10:05.951Z,13.10
2017-10-12T18:12:32.470Z,13.10
2017-10-12T18:14:58.917Z,13.10
2017-10-12T18:17:25.397Z,13.00
2017-10-12T18:19:52.582Z,13.00
2017-10-12T18:22:19.048Z,12.90
2017-10-12T18:24:45.527Z,12.90
2017-10-12T18:27:11.987Z,12.80
2017-10-12T18:29:38.467Z,12.80
2017-10-12T18:32:04.902Z,12.80
2017-10-12T18:34:31.346Z,12.80
2017-10-12T18:36:57.863Z,12.80
2017-10-12T18:39:24.389Z,12.70
2017-10-12T18:41:50.921Z,12.70
2017-10-12T18:44:17.508Z,12.70
2017-10-12T18:46:44.129Z,12.70
2017-10-12T18:49:10.998Z,12.70
2017-10-12T18:51:37.767Z,12.70
2017-10-12T18:54:05.307Z,12.60
2017-10-12T18:56:32.099Z,12.60
2017-10-12T18:58:59.090Z,12.60
2017-10-12T19:01:26.646Z,12.50
2017-10-12T19:03:53.434Z,12.50
2017-10-12T19:06:20.970Z,12.50
2017-10-12T19:08:48.493Z,12.30
2017-10-12T19:11:15.228Z,12.30
2017-10-12T19:13:42.757Z,12.20
2017-10-12T19:16:09.577Z,12.20
2017-10-12T19:18:36.381Z,12.20
2017-10-12T19:21:03.983Z,12.20
2017-10-12T19:23:30.914Z,12.20
2017-10-12T19:25:57.749Z,12.20
2017-10-12T19:28:39.477Z,12.10
2017-10-12T19:30:52.241Z,11.90
2017-10-12T19:33:19.071Z,11.90
2017-10-12T19:35:46.643Z,11.90
2017-10-12T19:38:13.493Z,11.90
2017-10-12T19:40:41.032Z,11.70
2017-10-12T19:43:07.769Z,11.70
2017-10-12T19:45:34.587Z,11.70
2017-10-12T19:48:02.061Z,11.60
2017-10-12T19:50:28.706Z,11.60
2017-10-12T19:52:55.205Z,11.60
2017-10-12T19:55:21.706Z,11.50
2017-10-12T19:57:48.188Z,11.40
2017-10-12T20:00:14.626Z,11.30
2017-10-12T20:02:41.141Z,11.10
2017-10-12T20:05:07.587Z,11.10
2017-10-12T20:07:34.805Z,11.00
2017-10-12T20:10:02.064Z,10.90
2017-10-12T20:12:28.542Z,10.80
2017-10-12T20:14:54.998Z,10.80
2017-10-12T20:17:21.453Z,10.80
2017-10-12T20:19:47.943Z,10.90
2017-10-12T20:22:14.421Z,10.90
2017-10-12T20:24:40.927Z,10.90
2017-10-12T20:27:07.445Z,10.90
2017-10-12T20:29:33.971Z,10.80
2017-10-12T20:32:00.545Z,10.60
2017-10-12T20:34:27.020Z,10.50
2017-10-12T20:36:53.482Z,10.50
2017-10-12T20:39:21.327Z,10.40
2017-10-12T20:42:17.702Z,10.40
2017-10-12T20:44:15.190Z,10.30
2017-10-12T20:46:42.398Z,10.30
2017-10-12T20:49:08.885Z,10.30
2017-10-12T20:51:35.397Z,10.20
2017-10-12T20:54:01.823Z,10.10
2017-10-12T20:56:28.298Z,10.20
2017-10-12T20:58:54.764Z,10.30
2017-10-12T21:01:21.254Z,10.30
2017-10-12T21:03:47.771Z,10.20
2017-10-12T21:06:15.034Z,10.10
2017-10-12T21:08:41.480Z,10.10
2017-10-12T21:11:08.886Z,10.10
2017-10-12T21:13:35.320Z,10.10
2017-10-12T21:16:01.782Z,10.20
2017-10-12T21:18:28.232Z,10.20
2017-10-12T21:20:55.430Z,10.10
2017-10-12T21:23:21.959Z,10.10
2017-10-12T21:25:48.414Z,10.10
2017-10-12T21:28:14.879Z,10.00
2017-10-12T21:30:42.090Z,9.90
2017-10-12T21:33:08.601Z,9.90
2017-10-12T21:35:35.042Z,9.80
2017-10-12T21:38:01.507Z,9.60
2017-10-12T21:40:27.947Z,9.60
2017-10-12T21:42:54.410Z,9.60
2017-10-12T21:45:21.592Z,9.50
2017-10-12T21:47:48.104Z,9.50
2017-10-12T21:50:15.297Z,9.30
2017-10-12T21:52:41.742Z,9.30
2017-10-12T21:55:08.219Z,9.30
2017-10-12T21:57:34.724Z,9.30
2017-10-12T22:00:01.241Z,9.30
2017-10-12T22:02:27.678Z,9.30
2017-10-12T22:04:54.204Z,9.30
2017-10-12T22:07:20.643Z,9.20
2017-10-12T22:09:47.077Z,9.00
2017-10-12T22:12:13.520Z,8.90
2017-10-12T22:14:39.991Z,8.80
2017-10-12T22:17:07.234Z,8.90
2017-10-12T22:19:33.670Z,8.80
2017-10-12T22:22:00.090Z,8.90
2017-10-12T22:24:26.517Z,8.90
2017-10-12T22:26:52.984Z,8.90
2017-10-12T22:29:20.140Z,8.90
2017-10-12T22:31:46.614Z,8.90
2017-10-12T22:34:13.088Z,8.90
2017-10-12T22:36:40.319Z,8.70
2017-10-12T22:39:06.773Z,8.70
2017-10-12T22:41:33.997Z,8.70
2017-10-12T22:44:00.462Z,8.70
2017-10-12T22:46:26.942Z,8.70
2017-10-12T22:48:53.406Z,8.70
2017-10-12T22:51:19.841Z,8.70
2017-10-12T22:53:46.293Z,8.60
2017-10-12T22:56:13.454Z,8.50
2017-10-12T22:58:39.909Z,8.50
2017-10-12T23:01:06.379Z,8.50
2017-10-12T23:03:32.825Z,8.50
2017-10-12T23:06:00.027Z,8.40
2017-10-12T23:08:26.530Z,8.40
2017-10-12T23:10:53.714Z,8.40
2017-10-12T23:13:20.156Z,8.40
2017-10-12T23:15:46.629Z,8.40
2017-10-12T23:18:13.838Z,8.40
2017-10-12T23:20:40.273Z,8.40
2017-10-12T23:23:06.683Z,8.40
2017-10-12T23:25:33.141Z,8.40
2017-10-12T23:27:59.616Z,8.40
2017-10-12T23:30:26.110Z,8.40
2017-10-12T23:32:52.546Z,8.40
2017-10-12T23:35:19.014Z,8.30
2017-10-12T23:37:45.447Z,8.30
2017-10-12T23:40:11.952Z,8.30
2017-10-12T23:42:39.115Z,8.30
2017-10-12T23:45:05.617Z,8.30
2017-10-12T23:47:32.056Z,8.30
2017-10-12T23:49:58.554Z,8.30
2017-10-12T23:52:25.733Z,8.20
2017-10-12T23:54:52.178Z,8.20
2017-10-12T23:57:18.644Z,8.20
2017-10-12T23:59:45.085Z,8.20
